Time;durP1;ratioP1;P1;durP2;ratioP2;P2;SDS_P1;SDS_P2;PMS_P1;PMS_P2;Temp;Humidity;BMP_temperature;BMP_pressure;BME280_temperature;BME280_humidity;BME280_pressure;Samples;Min_cycle;Max_cycle;Signal;HPM_P1;HPM_P2
2021/10/19 00:01:49;;;;;;;19.73;12.38;;;;;;;7.01;nan;101299.78;5035999;28;20041;-90
2021/10/19 00:04:40;;;;;;;19.02;13.27;;;;;;;7.01;nan;101299.78;5046463;28;20030;-90
2021/10/19 00:07:13;;;;;;;20.85;12.77;;;;;;;7.05;nan;101300.38;5063830;28;20044;-90
2021/10/19 00:10:09;;;;;;;16.88;11.70;;;;;;;7.02;nan;101298.81;5066032;28;20136;-90
2021/10/19 00:12:35;;;;;;;21.00;13.63;;;;;;;7.13;nan;101300.69;5053319;28;20052;-90
2021/10/19 00:15:02;;;;;;;20.80;13.63;;;;;;;7.05;nan;101289.88;5069179;28;20514;-90
2021/10/19 00:17:27;;;;;;;20.17;13.68;;;;;;;7.00;nan;101295.44;5067344;28;20074;-90
2021/10/19 00:19:54;;;;;;;18.08;12.50;;;;;;;7.00;nan;101305.97;5076419;28;20060;-90
2021/10/19 00:22:21;;;;;;;18.38;11.85;;;;;;;6.92;nan;101302.22;5055055;28;20487;-90
2021/10/19 00:24:47;;;;;;;19.15;13.32;;;;;;;6.94;nan;101322.19;5072713;28;20489;-90
2021/10/19 00:27:13;;;;;;;18.00;11.98;;;;;;;6.99;nan;101317.44;5052262;28;20051;-90
2021/10/19 00:29:40;;;;;;;17.80;12.07;;;;;;;7.00;nan;101316.47;5057293;28;20054;-90
2021/10/19 00:32:11;;;;;;;16.02;11.35;;;;;;;6.96;nan;101309.78;5032322;28;20044;-90
2021/10/19 00:34:41;;;;;;;17.77;11.82;;;;;;;6.92;nan;101320.63;5054546;28;20032;-90
2021/10/19 00:37:17;;;;;;;17.37;12.07;;;;;;;6.88;nan;101311.25;5075146;28;20036;-90
2021/10/19 00:39:47;;;;;;;17.23;11.82;;;;;;;6.98;nan;101313.16;5049672;28;20044;-91
2021/10/19 00:42:29;;;;;;;16.95;11.80;;;;;;;6.92;nan;101303.06;5037007;28;20033;-90
2021/10/19 00:44:59;;;;;;;;;;;;;;;6.97;nan;101319.34;5057619;28;20111;-90
2021/10/19 00:47:51;;;;;;;16.90;10.82;;;;;;;6.98;nan;101317.53;5051113;28;19912;-90
2021/10/19 00:50:19;;;;;;;16.27;11.20;;;;;;;6.93;nan;101330.19;5039031;28;20500;-90
2021/10/19 00:52:48;;;;;;;18.05;12.77;;;;;;;6.88;nan;101329.66;5051466;28;20101;-90
2021/10/19 00:55:26;;;;;;;16.65;11.52;;;;;;;6.90;nan;101325.16;5065270;28;20036;-90
2021/10/19 00:57:59;;;;;;;18.23;12.07;;;;;;;7.02;nan;101334.78;5050673;28;20062;-90
2021/10/19 01:00:25;;;;;;;22.63;14.67;;;;;;;7.09;nan;101335.22;5048678;28;20032;-90
2021/10/19 01:02:52;;;;;;;23.58;15.07;;;;;;;7.15;nan;101324.22;5058904;28;20174;-90
2021/10/19 01:05:19;;;;;;;20.80;13.68;;;;;;;7.03;nan;101318.06;5030294;28;20033;-90
2021/10/19 01:07:45;;;;;;;21.63;14.48;;;;;;;7.06;nan;101322.28;5041257;28;20044;-90
2021/10/19 01:10:12;;;;;;;20.42;12.98;;;;;;;7.02;nan;101322.47;5056104;28;20047;-90
2021/10/19 01:12:39;;;;;;;23.63;15.80;;;;;;;7.05;nan;101321.41;5074514;28;20052;-90
2021/10/19 01:15:13;;;;;;;24.25;15.68;;;;;;;7.07;nan;101322.16;5048534;28;20048;-90
2021/10/19 01:17:47;;;;;;;27.75;17.58;;;;;;;7.04;nan;101314.50;5051157;28;20044;-90
2021/10/19 01:20:23;;;;;;;28.20;17.70;;;;;;;7.00;nan;101305.13;5041196;28;20525;-90
2021/10/19 01:22:50;;;;;;;26.98;16.95;;;;;;;6.85;nan;101295.72;5062351;28;20051;-90
2021/10/19 01:25:19;;;;;;;24.65;16.65;;;;;;;6.89;nan;101302.41;5062531;28;20040;-91
2021/10/19 01:27:48;;;;;;;25.23;16.83;;;;;;;6.88;nan;101301.59;5051109;28;20040;-91
2021/10/19 01:30:14;;;;;;;30.00;18.67;;;;;;;6.88;nan;101304.22;5063702;28;20029;-90
2021/10/19 01:32:42;;;;;;;31.02;19.52;;;;;;;6.82;nan;101299.41;5052646;28;20601;-90
2021/10/19 01:35:12;;;;;;;22.90;15.27;;;;;;;6.74;nan;101296.47;5069112;28;20128;-89
2021/10/19 01:37:40;;;;;;;24.15;15.35;;;;;;;6.79;nan;101294.34;5047145;28;20037;-90
2021/10/19 01:40:10;;;;;;;24.05;16.88;;;;;;;6.80;nan;101285.53;5056284;28;20040;-90
2021/10/19 01:42:37;;;;;;;21.50;14.77;;;;;;;6.75;nan;101287.66;5043951;28;20032;-91
2021/10/19 01:45:11;;;;;;;21.17;14.02;;;;;;;6.75;nan;101277.97;5059895;28;20119;-90
2021/10/19 01:47:38;;;;;;;20.42;14.20;;;;;;;6.79;nan;101279.44;5052498;28;20120;-90
2021/10/19 01:50:08;;;;;;;22.95;14.98;;;;;;;6.77;nan;101286.59;5067180;28;20070;-90
2021/10/19 01:52:38;;;;;;;21.25;15.60;;;;;;;6.81;nan;101276.69;5065625;28;20043;-90
2021/10/19 01:55:10;;;;;;;21.83;15.10;;;;;;;6.87;nan;101283.31;5061032;28;20044;-90
2021/10/19 01:57:40;;;;;;;23.70;15.15;;;;;;;6.88;nan;101275.28;5058800;28;20063;-90
2021/10/19 02:00:09;;;;;;;27.08;17.50;;;;;;;6.90;nan;101272.56;5050343;28;20040;-90
2021/10/19 02:02:36;;;;;;;28.55;18.13;;;;;;;6.91;nan;101261.94;5062086;28;20049;-90
2021/10/19 02:05:02;;;;;;;23.98;16.33;;;;;;;6.85;nan;101264.19;5052854;28;20438;-90
2021/10/19 02:07:28;;;;;;;24.65;17.48;;;;;;;6.88;nan;101267.41;5052931;28;20040;-90
2021/10/19 02:09:55;;;;;;;27.48;18.25;;;;;;;6.90;nan;101268.13;5061493;28;20393;-90
2021/10/19 02:12:22;;;;;;;26.80;18.40;;;;;;;6.87;nan;101273.63;5048566;28;20047;-88
2021/10/19 02:14:48;;;;;;;26.52;17.88;;;;;;;6.92;nan;101276.75;5023195;28;20033;-89
2021/10/19 02:17:14;;;;;;;26.60;18.55;;;;;;;6.87;nan;101260.50;5079722;28;20037;-89
2021/10/19 02:19:39;;;;;;;25.02;17.15;;;;;;;6.87;nan;101243.88;5062095;28;20123;-90
2021/10/19 02:22:05;;;;;;;23.55;16.10;;;;;;;6.88;nan;101245.53;5051702;28;20094;-89
2021/10/19 02:24:30;;;;;;;26.10;17.08;;;;;;;6.91;nan;101246.19;5040999;28;20100;-89
2021/10/19 02:26:57;;;;;;;25.85;16.75;;;;;;;6.91;nan;101240.91;5061713;28;20044;-89
2021/10/19 02:29:23;;;;;;;27.73;18.05;;;;;;;6.97;nan;101245.72;5060726;28;20032;-89
2021/10/19 02:31:48;;;;;;;27.77;19.38;;;;;;;7.06;nan;101253.91;5061059;28;20473;-90
2021/10/19 02:34:16;;;;;;;26.75;18.38;;;;;;;7.05;nan;101244.31;5059179;28;20028;-89
2021/10/19 02:36:46;;;;;;;25.05;17.42;;;;;;;7.00;nan;101247.28;5060298;28;20041;-90
2021/10/19 02:39:14;;;;;;;25.45;17.77;;;;;;;6.95;nan;101239.72;5060779;28;20036;-90
2021/10/19 02:41:39;;;;;;;26.45;18.45;;;;;;;7.00;nan;101249.91;5060800;28;20037;-92
2021/10/19 02:44:05;;;;;;;24.33;16.92;;;;;;;6.98;nan;101238.66;5040995;28;20091;-90
2021/10/19 02:46:31;;;;;;;23.95;16.75;;;;;;;7.06;nan;101238.97;5080680;28;20611;-90
2021/10/19 02:49:02;;;;;;;23.20;16.05;;;;;;;7.09;nan;101233.47;5048163;28;20053;-90
2021/10/19 02:51:27;;;;;;;25.55;17.13;;;;;;;7.15;nan;101230.41;5045520;28;20032;-89
2021/10/19 02:53:54;;;;;;;23.60;16.23;;;;;;;7.12;nan;101232.41;5078278;28;20093;-90
2021/10/19 02:56:23;;;;;;;23.73;16.88;;;;;;;7.09;nan;101214.22;5057252;28;20032;-91
2021/10/19 02:58:49;;;;;;;23.33;16.17;;;;;;;7.10;nan;101197.50;5059716;28;20395;-91
2021/10/19 03:01:19;;;;;;;24.58;16.38;;;;;;;7.12;nan;101199.06;5058536;28;20029;-90
2021/10/19 03:03:46;;;;;;;21.58;15.55;;;;;;;7.16;nan;101205.78;5051490;28;20036;-90
2021/10/19 03:06:20;;;;;;;21.60;15.13;;;;;;;7.11;nan;101207.06;5032312;28;20446;-90
2021/10/19 03:08:56;;;;;;;21.80;14.98;;;;;;;7.19;nan;101217.84;5061291;28;20100;-90
2021/10/19 03:11:28;;;;;;;24.10;16.08;;;;;;;7.22;nan;101223.75;5066463;28;20072;-90
2021/10/19 03:14:24;;;;;;;20.20;14.70;;;;;;;7.22;nan;101225.50;5053771;28;20037;-90
2021/10/19 03:16:58;;;;;;;25.25;16.73;;;;;;;7.39;nan;101242.72;5064480;28;20040;-90
2021/10/19 03:19:26;;;;;;;24.73;17.20;;;;;;;7.43;nan;101244.97;5042801;28;20039;-90
2021/10/19 03:21:53;;;;;;;26.13;17.50;;;;;;;7.45;nan;101242.25;5036696;28;20095;-90
2021/10/19 03:24:19;;;;;;;25.73;16.73;;;;;;;7.41;nan;101249.53;5051229;28;20044;-90
2021/10/19 03:26:46;;;;;;;20.33;14.48;;;;;;;7.38;nan;101254.16;5081717;28;20056;-91
2021/10/19 03:29:17;;;;;;;22.55;15.65;;;;;;;7.41;nan;101248.69;5064069;28;20493;-91
2021/10/19 03:31:44;;;;;;;19.27;13.90;;;;;;;7.42;nan;101258.25;5028805;28;20092;-90
2021/10/19 03:34:10;;;;;;;19.13;14.07;;;;;;;7.41;nan;101251.31;5055347;28;20044;-90
2021/10/19 03:36:36;;;;;;;20.15;13.82;;;;;;;7.41;nan;101257.44;5066476;28;20039;-90
2021/10/19 03:39:02;;;;;;;21.27;14.05;;;;;;;7.43;nan;101252.03;5067654;28;20042;-90
2021/10/19 03:41:28;;;;;;;21.48;15.13;;;;;;;7.41;nan;101257.44;5076654;28;20163;-90
2021/10/19 03:43:53;;;;;;;18.17;13.73;;;;;;;7.37;nan;101242.81;5066650;28;20138;-90
2021/10/19 03:46:18;;;;;;;23.70;16.25;;;;;;;7.48;nan;101239.38;5058886;28;20058;-89
2021/10/19 03:48:44;;;;;;;21.23;14.18;;;;;;;7.41;nan;101246.03;5057246;28;20044;-89
2021/10/19 03:51:10;;;;;;;22.60;15.30;;;;;;;7.46;nan;101257.09;5066826;28;20039;-89
2021/10/19 03:53:37;;;;;;;21.08;15.60;;;;;;;7.45;nan;101244.88;5058786;28;20043;-89
2021/10/19 03:56:05;;;;;;;20.30;14.50;;;;;;;7.45;nan;101244.88;5052482;28;20063;-90
2021/10/19 03:58:30;;;;;;;18.35;12.90;;;;;;;7.44;nan;101245.84;5059353;28;20072;-90
2021/10/19 04:00:56;;;;;;;17.95;12.48;;;;;;;7.41;nan;101249.53;5059251;28;20044;-90
2021/10/19 04:03:21;;;;;;;17.50;13.05;;;;;;;7.49;nan;101242.88;5057612;28;20036;-89
2021/10/19 04:05:48;;;;;;;17.70;13.38;;;;;;;7.52;nan;101253.16;5041946;28;20036;-90
2021/10/19 04:08:14;;;;;;;20.05;13.60;;;;;;;7.57;nan;101246.59;5049919;28;20033;-89
2021/10/19 04:10:39;;;;;;;21.75;14.30;;;;;;;7.68;nan;101245.78;5067318;28;20165;-90
2021/10/19 04:13:05;;;;;;;22.08;14.27;;;;;;;7.65;nan;101238.97;5058936;28;20115;-90
2021/10/19 04:15:32;;;;;;;19.30;13.70;;;;;;;7.63;nan;101240.03;5050954;28;20171;-89
2021/10/19 04:17:58;;;;;;;21.10;14.43;;;;;;;7.71;nan;101247.34;5076651;28;20063;-90
2021/10/19 04:20:23;;;;;;;19.25;14.02;;;;;;;7.72;nan;101251.66;5057058;28;20033;-89
2021/10/19 04:22:49;;;;;;;19.17;14.00;;;;;;;7.76;nan;101256.56;5065390;28;20044;-89
2021/10/19 04:25:19;;;;;;;18.75;13.50;;;;;;;7.74;nan;101262.91;5057875;28;20480;-88
2021/10/19 04:27:46;;;;;;;19.83;13.45;;;;;;;7.81;nan;101258.88;5059546;28;20088;-89
2021/10/19 04:30:13;;;;;;;21.10;14.38;;;;;;;7.93;nan;101249.19;5066418;28;20473;-89
2021/10/19 04:32:39;;;;;;;25.00;15.25;;;;;;;8.03;nan;101244.91;5059884;28;20096;-90
2021/10/19 04:35:04;;;;;;;20.23;13.98;;;;;;;7.95;nan;101261.28;5058702;28;20035;-89
2021/10/19 04:37:32;;;;;;;19.10;13.55;;;;;;;8.06;nan;101265.75;5058435;28;20040;-89
2021/10/19 04:39:58;;;;;;;19.77;12.93;;;;;;;8.01;nan;101252.09;5066919;28;20039;-90
2021/10/19 04:42:27;;;;;;;22.02;13.68;;;;;;;8.09;nan;101255.81;5039114;28;20032;-90
2021/10/19 04:44:52;;;;;;;19.45;14.43;;;;;;;8.07;nan;101262.16;5041630;28;20032;-89
2021/10/19 04:47:18;;;;;;;18.75;13.65;;;;;;;8.15;nan;101264.19;5031743;28;20080;-89
2021/10/19 04:49:44;;;;;;;16.42;12.75;;;;;;;8.17;nan;101270.19;5075522;28;20094;-89
2021/10/19 04:52:11;;;;;;;16.02;12.07;;;;;;;8.24;nan;101261.69;5046802;28;20438;-90
2021/10/19 04:55:20;;;;;;;19.00;13.23;;;;;;;8.21;nan;101251.38;5057606;28;20037;-91
2021/10/19 04:58:06;;;;;;;23.38;15.02;;;;;;;8.35;nan;101238.94;5053564;28;20115;-90
2021/10/19 05:01:03;;;;;;;21.38;14.63;;;;;;;8.36;nan;101228.28;5074673;28;20144;-90
2021/10/19 05:03:52;;;;;;;22.53;15.10;;;;;;;8.47;nan;101233.59;5074240;28;20085;-91
2021/10/19 05:06:54;;;;;;;21.63;14.32;;;;;;;8.49;nan;101226.41;5059692;28;20032;-91
2021/10/19 05:09:59;;;;;;;23.73;15.98;;;;;;;8.56;nan;101236.47;5055835;28;20099;-90
2021/10/19 05:12:53;;;;;;;23.27;16.13;;;;;;;8.59;nan;101242.31;5048506;28;20087;-89
2021/10/19 05:15:39;;;;;;;27.38;16.80;;;;;;;8.55;nan;101238.25;5032616;28;20051;-90
2021/10/19 05:18:32;;;;;;;26.08;17.13;;;;;;;8.67;nan;101232.00;5061225;28;20032;-90
2021/10/19 05:21:09;;;;;;;28.15;18.27;;;;;;;8.81;nan;101240.59;5070703;28;20048;-90
2021/10/19 05:24:11;;;;;;;29.05;18.25;;;;;;;8.92;nan;101243.22;5046331;28;20040;-90
2021/10/19 05:26:48;;;;;;;24.80;16.02;;;;;;;8.78;nan;101249.59;5052098;28;20049;-90
2021/10/19 05:29:16;;;;;;;25.85;16.65;;;;;;;8.84;nan;101256.19;5050947;28;20045;-89
2021/10/19 05:32:12;;;;;;;28.63;18.40;;;;;;;8.94;nan;101257.16;5057892;28;20102;-92
2021/10/19 05:34:54;;;;;;;27.80;16.90;;;;;;;8.99;nan;101251.50;5073193;28;20040;-90
2021/10/19 05:37:29;;;;;;;27.30;17.90;;;;;;;9.10;nan;101251.44;5066227;28;20040;-89
2021/10/19 05:39:58;;;;;;;30.30;18.55;;;;;;;9.11;nan;101239.94;5055622;28;20083;-90
2021/10/19 05:42:37;;;;;;;28.77;18.25;;;;;;;9.24;nan;101247.69;5018890;28;20033;-91
2021/10/19 05:45:09;;;;;;;26.13;16.88;;;;;;;9.24;nan;101252.97;5027067;28;20045;-89
2021/10/19 05:47:45;;;;;;;30.13;18.75;;;;;;;9.29;nan;101272.72;5028880;28;20041;-91
2021/10/19 05:50:17;;;;;;;27.88;18.23;;;;;;;9.27;nan;101279.09;5030142;28;20115;-89
2021/10/19 05:52:49;;;;;;;29.85;18.80;;;;;;;9.33;nan;101275.97;5040492;28;20041;-90
2021/10/19 05:55:25;;;;;;;30.73;19.55;;;;;;;9.35;nan;101268.78;5012791;28;20060;-91
2021/10/19 05:58:04;;;;;;;27.92;18.17;;;;;;;9.37;nan;101277.41;5016923;28;20048;-89
2021/10/19 06:00:32;;;;;;;28.83;18.52;;;;;;;9.37;nan;101266.84;5028603;28;20036;-90
2021/10/19 06:03:32;;;;;;;28.27;17.88;;;;;;;9.41;nan;101270.06;5012169;28;20037;-91
2021/10/19 06:06:39;;;;;;;31.70;19.83;;;;;;;9.47;nan;101259.00;5037161;28;20048;-90
2021/10/19 06:09:28;;;;;;;30.58;19.90;;;;;;;9.43;nan;101229.38;5040364;28;20053;-90
2021/10/19 06:12:01;;;;;;;36.67;21.40;;;;;;;9.52;nan;101243.63;5022288;28;20039;-90
2021/10/19 06:14:33;;;;;;;31.90;20.33;;;;;;;9.51;nan;101244.56;5016209;28;20059;-91
2021/10/19 06:17:27;;;;;;;31.10;19.98;;;;;;;9.43;nan;101239.09;5039252;28;20053;-91
2021/10/19 06:19:59;;;;;;;34.00;21.17;;;;;;;9.53;nan;101247.94;5025334;28;20041;-90
2021/10/19 06:22:33;;;;;;;32.58;20.50;;;;;;;9.54;nan;101253.09;5005234;28;20033;-91
2021/10/19 06:25:00;;;;;;;32.50;19.80;;;;;;;9.54;nan;101257.53;5038630;28;20120;-91
2021/10/19 06:27:38;;;;;;;32.03;19.77;;;;;;;9.55;nan;101253.91;5043649;28;20044;-93
2021/10/19 06:30:29;;;;;;;35.38;21.42;;;;;;;9.55;nan;101259.19;5048073;28;20044;-91
2021/10/19 06:33:12;;;;;;;29.90;19.60;;;;;;;9.51;nan;101250.72;5036422;28;20044;-90
2021/10/19 06:36:13;;;;;;;35.30;21.90;;;;;;;9.51;nan;101245.44;5030988;28;20037;-91
2021/10/19 06:38:55;;;;;;;29.60;19.02;;;;;;;9.53;nan;101243.50;5067845;28;20503;-93
2021/10/19 06:41:31;;;;;;;29.65;19.67;;;;;;;9.56;nan;101237.97;5036053;28;20528;-91
2021/10/19 06:44:00;;;;;;;28.70;18.98;;;;;;;9.55;nan;101244.19;5056795;28;20373;-92
2021/10/19 06:46:27;;;;;;;33.15;20.17;;;;;;;9.54;nan;101229.31;5025265;28;20063;-91
2021/10/19 06:49:07;;;;;;;31.38;21.27;;;;;;;9.55;nan;101230.16;5030616;28;20029;-90
2021/10/19 06:51:38;;;;;;;28.50;18.58;;;;;;;9.57;nan;101236.16;5056749;28;20091;-91
2021/10/19 06:54:28;;;;;;;31.42;20.60;;;;;;;9.67;nan;101234.41;5049038;28;20032;-90
2021/10/19 06:57:12;;;;;;;22.73;15.68;;;;;;;9.54;nan;101239.06;5050105;28;20044;-90
2021/10/19 06:59:43;;;;;;;26.02;17.50;;;;;;;9.66;nan;101237.19;5052476;28;20733;-90
2021/10/19 07:02:36;;;;;;;22.73;16.63;;;;;;;9.69;nan;101247.50;5057988;28;20037;-91
2021/10/19 07:05:30;;;;;;;29.83;18.63;;;;;;;9.68;nan;101245.84;5051714;28;20037;-90
2021/10/19 07:08:18;;;;;;;26.65;18.40;;;;;;;9.69;nan;101263.34;5035691;28;20081;-90
2021/10/19 07:10:53;;;;;;;32.90;20.50;;;;;;;9.76;nan;101253.94;5016113;28;20543;-90
2021/10/19 07:13:29;;;;;;;30.25;19.83;;;;;;;9.78;nan;101263.41;5063263;28;20032;-91
2021/10/19 07:16:33;;;;;;;29.10;19.27;;;;;;;9.81;nan;101269.41;5053194;28;20589;-91
2021/10/19 07:19:43;;;;;;;29.35;18.38;;;;;;;9.81;nan;101269.41;5052440;28;20454;-90
2021/10/19 07:22:15;;;;;;;28.10;18.55;;;;;;;9.79;nan;101264.25;5030601;28;20226;-92
2021/10/19 07:24:56;;;;;;;24.65;17.08;;;;;;;9.82;nan;101268.44;5037566;28;20605;-92
2021/10/19 07:27:46;;;;;;;30.15;18.60;;;;;;;9.81;nan;101258.84;5063503;28;20037;-92
2021/10/19 07:30:16;;;;;;;27.90;17.80;;;;;;;9.79;nan;101261.59;5039260;28;20032;-92
2021/10/19 07:33:18;;;;;;;29.70;19.83;;;;;;;9.82;nan;101265.78;5044864;28;20037;-93
2021/10/19 07:36:01;;;;;;;24.63;16.38;;;;;;;9.80;nan;101265.94;5053369;28;20449;-91
2021/10/19 07:39:20;;;;;;;24.90;16.43;;;;;;;9.84;nan;101256.75;5020246;28;20531;-91
2021/10/19 07:42:11;;;;;;;23.83;15.38;;;;;;;9.99;nan;101262.59;5039738;28;20290;-92
2021/10/19 07:44:43;;;;;;;;;;;;;;;9.96;nan;101274.25;5027003;28;20047;-90
2021/10/19 07:47:28;;;;;;;18.37;13.43;;;;;;;10.03;nan;101285.09;5048985;28;19913;-91
2021/10/19 07:50:20;;;;;;;24.23;15.60;;;;;;;10.05;nan;101262.03;5027172;28;20047;-91
2021/10/19 07:52:54;;;;;;;17.17;12.07;;;;;;;9.99;nan;101263.41;5026917;28;20076;-90
2021/10/19 07:55:33;;;;;;;19.50;13.02;;;;;;;10.10;nan;101269.59;5052599;28;20558;-91
2021/10/19 07:58:01;;;;;;;19.10;13.52;;;;;;;10.11;nan;101258.06;5052977;28;20063;-92
2021/10/19 08:00:45;;;;;;;15.55;10.95;;;;;;;10.10;nan;101257.19;5044611;28;20054;-92
2021/10/19 08:03:18;;;;;;;17.05;12.50;;;;;;;10.16;nan;101261.16;5070157;28;20044;-91
2021/10/19 08:06:14;;;;;;;16.83;11.38;;;;;;;10.19;nan;101263.50;5053464;28;20040;-91
2021/10/19 08:08:41;;;;;;;16.27;11.73;;;;;;;10.21;nan;101269.50;5051566;28;20118;-91
2021/10/19 08:11:20;;;;;;;16.52;11.88;;;;;;;10.16;nan;101264.63;5052091;28;20048;-92
2021/10/19 08:13:46;;;;;;;16.77;10.95;;;;;;;10.18;nan;101275.06;5054277;28;20041;-91
2021/10/19 08:16:23;;;;;;;16.88;11.55;;;;;;;10.21;nan;101274.78;5051857;28;20047;-92
2021/10/19 08:18:52;;;;;;;19.20;12.93;;;;;;;10.23;nan;101264.94;5060663;28;20471;-90
2021/10/19 08:21:23;;;;;;;18.30;12.70;;;;;;;10.20;nan;101251.97;5044522;28;20041;-91
2021/10/19 08:23:50;;;;;;;17.98;12.55;;;;;;;10.29;nan;101250.38;5042000;28;20040;-92
2021/10/19 08:26:17;;;;;;;18.80;12.80;;;;;;;10.34;nan;101246.34;5031342;28;20033;-91
2021/10/19 08:28:48;;;;;;;16.27;12.02;;;;;;;10.36;nan;101247.06;5050944;28;20182;-92
2021/10/19 08:31:21;;;;;;;15.55;11.32;;;;;;;10.38;nan;101249.59;5052480;28;20040;-90
2021/10/19 08:33:56;;;;;;;19.52;13.43;;;;;;;10.51;nan;101250.22;5035034;28;20033;-91
2021/10/19 08:36:22;;;;;;;14.80;10.63;;;;;;;10.49;nan;101246.03;5058225;28;20115;-90
2021/10/19 08:38:51;;;;;;;13.88;9.98;;;;;;;10.48;nan;101213.44;5044670;28;20040;-93
2021/10/19 08:41:18;;;;;;;16.58;11.20;;;;;;;10.55;nan;101230.44;5052159;28;20626;-91
2021/10/19 08:43:47;;;;;;;13.40;10.02;;;;;;;10.54;nan;101223.50;5045759;28;20036;-90
2021/10/19 08:46:18;;;;;;;15.00;10.10;;;;;;;10.61;nan;101218.50;5039361;28;20029;-91
2021/10/19 08:48:50;;;;;;;16.98;11.35;;;;;;;10.65;nan;101230.47;5046170;28;20048;-91
2021/10/19 08:51:40;;;;;;;14.15;10.73;;;;;;;10.69;nan;101237.16;5045263;28;20476;-91
2021/10/19 08:54:10;;;;;;;13.20;9.95;;;;;;;10.70;nan;101223.00;5065226;28;20423;-91
2021/10/19 08:56:40;;;;;;;13.43;10.07;;;;;;;10.70;nan;101232.72;5045139;28;20400;-91
2021/10/19 08:59:16;;;;;;;13.27;9.82;;;;;;;10.75;nan;101238.44;5051310;28;20043;-92
2021/10/19 09:01:41;;;;;;;14.10;10.43;;;;;;;10.79;nan;101232.72;5040924;28;20156;-90
2021/10/19 09:04:08;;;;;;;17.35;12.32;;;;;;;10.76;nan;101232.19;5051278;28;20037;-90
2021/10/19 09:06:38;;;;;;;17.15;11.73;;;;;;;10.74;nan;101227.00;5045047;28;20041;-91
2021/10/19 09:09:27;;;;;;;16.08;12.00;;;;;;;10.79;nan;101242.47;5051945;28;20091;-91
2021/10/19 09:12:09;;;;;;;13.65;10.50;;;;;;;10.75;nan;101227.84;5040463;28;20029;-90
2021/10/19 09:14:46;;;;;;;16.27;11.57;;;;;;;10.76;nan;101217.13;5042126;28;20061;-91
2021/10/19 09:17:20;;;;;;;16.42;12.15;;;;;;;10.87;nan;101210.91;5032825;28;20047;-91
2021/10/19 09:19:54;;;;;;;21.58;12.95;;;;;;;10.87;nan;101204.75;5053983;28;20449;-92
2021/10/19 09:22:25;;;;;;;18.15;12.48;;;;;;;10.90;nan;101207.97;5034405;28;20527;-91
2021/10/19 09:24:52;;;;;;;17.52;12.25;;;;;;;10.93;nan;101210.34;5059152;28;20553;-91
2021/10/19 09:27:18;;;;;;;16.00;11.23;;;;;;;11.02;nan;101211.34;5032258;28;20115;-91
2021/10/19 09:29:55;;;;;;;17.30;11.20;;;;;;;10.99;nan;101203.69;5035656;28;20047;-92
2021/10/19 09:32:34;;;;;;;16.17;11.35;;;;;;;11.04;nan;101196.16;5047275;28;20064;-93
2021/10/19 09:35:23;;;;;;;16.40;11.38;;;;;;;11.10;nan;101192.94;5016579;28;20044;-93
2021/10/19 09:38:12;;;;;;;15.55;11.18;;;;;;;11.26;nan;101190.56;5066790;28;20127;-92
2021/10/19 09:40:53;;;;;;;14.63;10.05;;;;;;;11.31;nan;101190.16;5041163;28;20041;-91
2021/10/19 09:43:40;;;;;;;13.95;9.35;;;;;;;11.37;nan;101188.75;5066776;28;20036;-92
2021/10/19 09:46:11;;;;;;;12.68;8.85;;;;;;;11.47;nan;101186.94;5033927;28;20508;-92
2021/10/19 09:48:45;;;;;;;11.32;8.20;;;;;;;11.62;nan;101200.59;5013807;28;20041;-92
2021/10/19 09:51:13;;;;;;;11.68;8.18;;;;;;;11.69;nan;101183.97;5051434;28;20041;-91
2021/10/19 09:53:46;;;;;;;12.30;8.00;;;;;;;11.81;nan;101197.06;5029857;28;20037;-93
2021/10/19 09:56:16;;;;;;;12.88;8.18;;;;;;;12.06;nan;101204.41;5039813;28;20126;-91
2021/10/19 09:59:03;;;;;;;11.57;7.55;;;;;;;12.17;nan;101205.22;5057244;28;20079;-92
2021/10/19 10:01:34;;;;;;;8.50;6.60;;;;;;;12.18;nan;101204.22;5056861;28;20044;-92
2021/10/19 10:04:01;;;;;;;13.13;6.60;;;;;;;12.21;nan;101196.00;5043968;28;20100;-93
2021/10/19 10:06:32;;;;;;;7.57;6.28;;;;;;;12.21;nan;101198.66;5056366;28;20044;-93
2021/10/19 10:09:05;;;;;;;9.00;7.22;;;;;;;12.40;nan;101208.34;5031058;28;20044;-92
2021/10/19 10:11:34;;;;;;;8.18;5.95;;;;;;;12.29;nan;101191.59;5054895;28;20051;-93
2021/10/19 10:14:03;;;;;;;9.45;6.63;;;;;;;12.38;nan;101203.16;5054103;28;20492;-91
2021/10/19 10:16:46;;;;;;;7.88;6.00;;;;;;;12.40;nan;101201.19;5034112;28;20045;-91
2021/10/19 10:19:18;;;;;;;8.63;6.13;;;;;;;12.40;nan;101203.84;5042232;28;20492;-92
2021/10/19 10:21:52;;;;;;;10.18;6.60;;;;;;;12.48;nan;101198.63;5058506;28;20076;-91
2021/10/19 10:24:41;;;;;;;8.40;6.60;;;;;;;12.45;nan;101196.28;5042652;28;20101;-91
2021/10/19 10:27:34;;;;;;;8.48;6.10;;;;;;;12.42;nan;101195.72;5048650;28;20129;-91
2021/10/19 10:30:40;;;;;;;8.15;5.90;;;;;;;12.51;nan;101200.16;5060167;28;20439;-92
2021/10/19 10:33:11;;;;;;;7.78;5.88;;;;;;;12.54;nan;101187.44;5064603;28;20029;-92
2021/10/19 10:36:00;;;;;;;8.85;5.60;;;;;;;12.64;nan;101190.03;5053691;28;20040;-89
2021/10/19 10:38:31;;;;;;;7.43;5.40;;;;;;;12.59;nan;101181.69;5056666;28;20084;-91
2021/10/19 10:41:16;;;;;;;6.97;5.20;;;;;;;12.66;nan;101187.25;5061665;23;20041;-86
2021/10/19 10:43:43;;;;;;;7.70;5.63;;;;;;;12.70;nan;101178.84;5053651;28;20065;-85
2021/10/19 10:46:15;;;;;;;8.35;5.65;;;;;;;12.64;nan;101174.13;5056360;28;20036;-86
2021/10/19 10:48:41;;;;;;;7.28;5.63;;;;;;;12.69;nan;101185.13;5059348;28;20037;-86
2021/10/19 10:51:09;;;;;;;7.93;5.43;;;;;;;12.70;nan;101176.19;5063622;28;20036;-85
2021/10/19 10:53:39;;;;;;;7.85;5.32;;;;;;;12.73;nan;101169.75;5053550;28;20034;-86
2021/10/19 10:56:07;;;;;;;6.78;5.05;;;;;;;12.79;nan;101166.47;5054989;28;20033;-86
2021/10/19 10:58:35;;;;;;;6.00;4.70;;;;;;;12.85;nan;101183.63;5054235;28;20029;-85
2021/10/19 11:01:16;;;;;;;8.38;5.35;;;;;;;12.94;nan;101167.63;5054172;28;20036;-85
2021/10/19 11:03:47;;;;;;;8.80;5.13;;;;;;;13.03;nan;101173.00;5053234;28;20040;-85
2021/10/19 11:06:16;;;;;;;;;;;;;;;13.14;nan;101178.94;5055428;28;20732;-86
2021/10/19 11:08:42;;;;;;;6.93;5.00;;;;;;;13.23;nan;101174.53;5062358;28;19923;-86
2021/10/19 11:11:13;;;;;;;7.88;5.15;;;;;;;13.22;nan;101172.84;5055355;28;20033;-85
2021/10/19 11:13:50;;;;;;;7.28;5.47;;;;;;;13.24;nan;101162.91;5059553;28;20477;-86
2021/10/19 11:16:27;;;;;;;8.43;5.18;;;;;;;13.34;nan;101165.50;5052938;28;20025;-85
2021/10/19 11:18:53;;;;;;;7.70;5.40;;;;;;;13.36;nan;101163.53;5054503;28;20119;-85
2021/10/19 11:21:19;;;;;;;6.75;4.82;;;;;;;13.32;nan;101160.38;5064681;28;20083;-85
2021/10/19 11:23:44;;;;;;;7.70;5.47;;;;;;;13.38;nan;101154.41;5055293;28;20402;-86
2021/10/19 11:26:11;;;;;;;6.90;5.20;;;;;;;13.44;nan;101150.28;5054338;28;20053;-85
2021/10/19 11:28:40;;;;;;;6.47;5.13;;;;;;;13.36;nan;101151.06;5055871;28;20484;-85
2021/10/19 11:31:07;;;;;;;8.00;4.93;;;;;;;13.43;nan;101134.53;5054346;28;20037;-85
2021/10/19 11:33:37;;;;;;;7.60;6.20;;;;;;;13.51;nan;101143.38;5055567;28;20514;-85
2021/10/19 11:36:04;;;;;;;7.18;5.30;;;;;;;13.55;nan;101134.09;5063876;28;20040;-85
2021/10/19 11:38:30;;;;;;;7.32;5.53;;;;;;;13.65;nan;101147.28;5061082;28;20033;-85
2021/10/19 11:41:09;;;;;;;7.80;5.82;;;;;;;13.73;nan;101130.53;5059606;28;20101;-84
2021/10/19 11:43:39;;;;;;;8.70;6.03;;;;;;;13.68;nan;101130.19;5054465;28;20025;-84
2021/10/19 11:46:09;;;;;;;7.93;5.90;;;;;;;13.76;nan;101133.75;5056234;28;20091;-85
2021/10/19 11:48:36;;;;;;;8.30;5.40;;;;;;;13.81;nan;101127.94;5062351;28;20037;-85
2021/10/19 11:51:02;;;;;;;7.55;5.50;;;;;;;13.89;nan;101120.00;5055721;28;20041;-85
2021/10/19 11:53:29;;;;;;;7.30;5.63;;;;;;;14.04;nan;101114.94;5055868;28;20028;-84
2021/10/19 11:55:55;;;;;;;8.38;6.00;;;;;;;14.09;nan;101107.31;5054673;28;20037;-85
2021/10/19 11:58:25;;;;;;;9.57;5.93;;;;;;;14.11;nan;101102.66;5053100;28;20109;-84
2021/10/19 12:00:52;;;;;;;8.30;5.80;;;;;;;14.13;nan;101099.84;5054025;28;20070;-84
2021/10/19 12:03:18;;;;;;;10.02;5.72;;;;;;;14.16;nan;101095.03;5055121;28;20036;-84
2021/10/19 12:05:44;;;;;;;10.10;6.35;;;;;;;14.22;nan;101090.88;5062156;28;20033;-84